Data for 04/23/2013

Time Sea-Level Adjusted Pressure Absolute Pressure Temperature Relative Humidity Dew Point   
(mb) (inHg) (mb) (inHg) (C) (F) (%) (C) (F)
00:05 1025 30.27 855 25.25 -7.1 19.3 71 -11.5 11.2
00:10 1025 30.27 855 25.25 -7.2 19 72 -11.5 11.2
00:15 1025 30.27 855 25.25 -7.2 19 71 -11.6 11.1
00:20 1025 30.27 855 25.25 -7.2 19.1 71 -11.6 11.1
00:25 1025 30.27 855 25.25 -7.1 19.1 71 -11.6 11.1
00:30 1025 30.27 854 25.22 -7.1 19.3 70 -11.6 11
00:35 1025 30.27 854 25.22 -7.1 19.3 70 -11.6 11.1
00:40 1025 30.27 854 25.22 -7.1 19.3 70 -11.6 11.1
00:45 1025 30.27 854 25.22 -7.2 19 70 -11.7 10.9
00:50 1025 30.27 854 25.22 -7.2 19.1 71 -11.6 11.1
00:55 1025 30.27 854 25.22 -7.3 18.9 71 -11.6 11.1
01:00 1025 30.27 854 25.22 -7.4 18.8 71 -11.7 11
01:05 1025 30.27 854 25.22 -7.4 18.6 72 -11.7 11
01:10 1025 30.27 854 25.22 -7.5 18.6 72 -11.8 10.8
01:15 1025 30.27 854 25.22 -7.4 18.7 71 -11.8 10.8
01:20 1025 30.27 854 25.22 -7.4 18.7 71 -11.8 10.8
01:25 1025 30.27 854 25.22 -7.5 18.6 72 -11.7 10.9
01:30 1025 30.27 854 25.22 -7.7 18.2 73 -11.7 10.9
01:35 1025 30.27 854 25.22 -7.8 18.1 73 -11.8 10.7
01:40 1025 30.27 854 25.22 -7.7 18.1 73 -11.8 10.8
01:45 1025 30.27 854 25.22 -7.7 18.1 72 -11.9 10.6
01:50 1025 30.27 854 25.22 -7.5 18.5 71 -11.9 10.6
01:55 1025 30.27 854 25.22 -7.4 18.8 70 -11.9 10.6
02:00 1025 30.27 854 25.22 -7.4 18.8 70 -11.9 10.6
02:05 1025 30.27 854 25.22 -7.5 18.6 71 -11.9 10.6
02:10 1025 30.27 854 25.22 -7.5 18.6 70 -12.1 10.3
02:15 1025 30.27 854 25.22 -7.4 18.7 70 -12 10.4
02:20 1025 30.27 854 25.22 -7.5 18.5 71 -12 10.5
02:25 1025 30.27 854 25.22 -7.6 18.4 71 -12 10.4
02:30 1025 30.27 854 25.22 -7.6 18.3 71 -12 10.4
02:35 1024 30.24 854 25.22 -7.8 18 72 -12 10.5
02:40 1024 30.24 854 25.22 -7.7 18.1 71 -12.2 10.1
02:45 1024 30.24 854 25.22 -7.4 18.7 69 -12.1 10.2
02:50 1024 30.24 854 25.22 -7.2 19.1 68 -12.2 10.1
02:55 1024 30.24 854 25.22 -7.1 19.2 65 -12.7 9.2
03:00 1024 30.24 854 25.22 -7.1 19.1 66 -12.5 9.5
03:05 1024 30.24 854 25.22 -7.2 19 67 -12.3 9.8
03:10 1024 30.24 854 25.22 -7.3 18.8 67 -12.4 9.7
03:15 1024 30.24 854 25.22 -7.5 18.6 68 -12.3 9.8
03:20 1024 30.24 854 25.22 -7.6 18.4 69 -12.4 9.7
03:25 1024 30.24 854 25.22 -7.8 18 70 -12.3 9.9
03:30 1024 30.24 853 25.19 -8 17.7 71 -12.3 9.8
03:35 1024 30.24 853 25.19 -8.1 17.4 72 -12.3 9.9
03:40 1024 30.24 853 25.19 -8.2 17.2 72 -12.4 9.7
03:45 1024 30.24 853 25.19 -8.5 16.8 74 -12.3 9.8
03:50 1024 30.24 853 25.19 -8.7 16.4 74 -12.4 9.6
03:55 1024 30.24 853 25.19 -8.6 16.6 73 -12.6 9.4
04:00 1024 30.24 853 25.19 -8.1 17.3 68 -13.1 8.5
04:05 1024 30.24 853 25.19 -7.8 17.9 70 -12.4 9.6
04:10 1024 30.24 853 25.19 -7.9 17.8 69 -12.7 9.1
04:15 1024 30.24 853 25.19 -7.6 18.3 67 -12.8 9
04:20 1024 30.24 853 25.19 -7.6 18.4 67 -12.7 9.2
04:25 1024 30.24 853 25.19 -7.7 18.1 69 -12.5 9.5
04:30 1024 30.24 853 25.19 -8.1 17.4 71 -12.4 9.7
04:35 1024 30.24 853 25.19 -8.5 16.8 71 -12.8 9
04:40 1024 30.24 853 25.19 -8.4 17 70 -12.8 8.9
04:45 1024 30.24 853 25.19 -8.1 17.5 70 -12.6 9.4
04:50 1024 30.24 853 25.19 -8.2 17.2 70 -12.7 9.2
04:55 1024 30.24 853 25.19 -8.1 17.4 69 -12.8 8.9
05:00 1024 30.24 853 25.19 -8 17.7 68 -12.8 8.9
05:05 1024 30.24 853 25.19 -8 17.7 67 -13.1 8.4
05:10 1024 30.24 853 25.19 -8 17.5 67 -13.2 8.2
05:15 1024 30.24 853 25.19 -8.2 17.2 68 -13.2 8.3
05:20 1024 30.24 853 25.19 -8.4 16.9 68 -13.2 8.2
05:25 1024 30.24 853 25.19 -8.4 16.9 68 -13.3 8
05:30 1024 30.24 853 25.19 -8.4 17 68 -13.3 8
05:35 1024 30.24 853 25.19 -8.2 17.2 67 -13.4 7.9
05:40 1024 30.24 853 25.19 -8.1 17.5 66 -13.3 8
05:45 1024 30.24 853 25.19 -8.1 17.5 67 -13.2 8.3
05:50 1024 30.24 853 25.19 -8.1 17.5 67 -13.2 8.3
05:55 1024 30.24 853 25.19 -8.1 17.5 68 -13 8.5
06:00 1024 30.24 853 25.19 -8.1 17.4 67 -13.1 8.3
06:05 1024 30.24 853 25.19 -8 17.7 67 -13 8.5
06:10 1024 30.24 853 25.19 -7.7 18.1 67 -12.8 9
06:15 1024 30.24 853 25.19 -7.4 18.7 66 -12.7 9.1
06:20 1024 30.24 853 25.19 -7.1 19.2 64 -12.8 9
06:25 1024 30.24 853 25.19 -7 19.5 65 -12.5 9.6
06:30 1024 30.24 853 25.19 -7.1 19.2 65 -12.6 9.4
06:35 1024 30.24 853 25.19 -6.9 19.6 64 -12.6 9.4
06:40 1024 30.24 853 25.19 -6.3 20.6 62 -12.5 9.5
06:45 1024 30.24 853 25.19 -5.7 21.7 59 -12.5 9.5
06:50 1024 30.24 853 25.19 -5.6 21.9 59 -12.4 9.6
06:55 1024 30.24 853 25.19 -5.3 22.5 58 -12.3 9.8
07:00 1024 30.24 853 25.19 -4.9 23.1 58 -12 10.3
07:05 1024 30.24 853 25.19 -4.7 23.6 57 -11.9 10.5
07:10 1024 30.24 853 25.19 -4.3 24.3 56 -11.9 10.6
07:15 1024 30.24 853 25.19 -3.8 25.2 54 -11.8 10.7
07:20 1024 30.24 853 25.19 -3.5 25.7 54 -11.4 11.5
07:25 1024 30.24 853 25.19 -3.1 26.5 52 -11.7 11
07:30 1024 30.24 853 25.19 -2.3 27.8 51 -11.2 11.9
07:35 1024 30.24 853 25.19 -1.7 29 49 -11 12.1
07:40 1024 30.24 853 25.19 -1.2 29.9 47 -11.1 11.9
07:45 1024 30.24 853 25.19 -1.2 29.9 48 -10.7 12.7
07:50 1024 30.24 853 25.19 -1.2 29.9 41 -12.9 8.9
07:55 1024 30.24 853 25.19 -1 30.2 40 -12.8 8.9
08:00 1024 30.24 853 25.19 -0.4 31.4 39 -12.6 9.3
08:05 1024 30.24 853 25.19 -0.3 31.5 38 -13 8.5
08:10 1024 30.24 853 25.19 -0.3 31.5 39 -12.5 9.5
08:15 1024 30.24 853 25.19 -0.7 30.7 40 -12.6 9.3
08:20 1024 30.24 853 25.19 -0.2 31.7 36 -13.5 7.7
08:25 1024 30.24 853 25.19 0.6 33 36 -12.9 8.8
08:30 1024 30.24 853 25.19 0.5 33 35 -13.1 8.4
08:35 1024 30.24 853 25.19 1 33.8 33 -13.7 7.3
08:40 1024 30.24 853 25.19 1.1 34 34 -13.1 8.4
08:45 1024 30.24 853 25.19 1.1 33.9 34 -13 8.6
08:50 1024 30.24 853 25.19 1.5 34.6 33 -13.1 8.3
08:55 1023 30.21 853 25.19 1.3 34.3 33 -13.5 7.8
09:00 1023 30.21 853 25.19 1.9 35.4 32 -13 8.7
09:05 1023 30.21 853 25.19 1.4 34.6 33 -13.3 8
09:10 1023 30.21 852 25.16 1.6 34.9 32 -13.3 8.1
09:15 1023 30.21 852 25.16 2.2 35.9 30 -13.6 7.5
09:20 1023 30.21 852 25.16 2.3 36.1 32 -13 8.6
09:25 1023 30.21 852 25.16 2.4 36.4 30 -13.5 7.7
09:30 1023 30.21 852 25.16 2.9 37.3 29 -13.6 7.5
09:35 1023 30.21 852 25.16 3.4 38.1 29 -13.2 8.3
09:40 1023 30.21 852 25.16 3 37.5 29 -13.5 7.7
09:45 1023 30.21 852 25.16 3 37.3 28 -13.8 7.2
09:50 1023 30.21 852 25.16 3 37.5 29 -13.3 8.1
09:55 1023 30.21 852 25.16 3 37.5 29 -13.4 7.9
10:00 1023 30.21 852 25.16 3.8 38.8 28 -13.2 8.3
10:05 1023 30.21 852 25.16 3.8 38.8 28 -13.2 8.2
10:10 1023 30.21 852 25.16 3.3 38 29 -12.9 8.8
10:15 1023 30.21 852 25.16 3.4 38.1 29 -13 8.6
10:20 1023 30.21 852 25.16 3.4 38.2 29 -13 8.6
10:25 1023 30.21 852 25.16 3.3 37.9 30 -12.8 9
10:30 1023 30.21 852 25.16 3.3 38 30 -12.6 9.3
10:35 1023 30.21 852 25.16 3.6 38.6 30 -12.6 9.4
10:40 1023 30.21 852 25.16 4.1 39.4 28 -12.9 8.9
10:45 1023 30.21 852 25.16 4.5 40.2 28 -12.5 9.6
10:50 1023 30.21 852 25.16 4.2 39.6 29 -12.1 10.1
10:55 1023 30.21 852 25.16 3.7 38.7 30 -12.4 9.7
11:00 1023 30.21 852 25.16 3.7 38.6 30 -12.5 9.4
11:05 1023 30.21 852 25.16 4 39.2 31 -11.9 10.6
11:10 1023 30.21 852 25.16 4.3 39.7 30 -12 10.4
11:15 1023 30.21 852 25.16 4.5 40.1 29 -12 10.5
11:20 1023 30.21 852 25.16 4.4 39.8 30 -11.9 10.6
11:25 1022 30.18 852 25.16 3.7 38.7 30 -12.2 10.1
11:30 1022 30.18 852 25.16 3.7 38.6 31 -11.9 10.6
11:35 1022 30.18 852 25.16 4.2 39.6 30 -12 10.4
11:40 1022 30.18 852 25.16 4.8 40.6 30 -11.6 11.1
11:45 1022 30.18 852 25.16 4.7 40.4 30 -11.6 11.1
11:50 1022 30.18 851 25.13 4.8 40.6 29 -11.6 11
11:55 1022 30.18 851 25.13 5.1 41.2 29 -11.6 11.1
12:00 1022 30.18 851 25.13 5.4 41.7 29 -11.1 12
12:05 1022 30.18 851 25.13 4.7 40.4 30 -11.5 11.4
12:10 1022 30.18 851 25.13 4.7 40.5 30 -11.4 11.5
12:15 1022 30.18 851 25.13 5 41 30 -11.2 11.8
12:20 1022 30.18 851 25.13 5.5 41.9 29 -11.3 11.6
12:25 1022 30.18 851 25.13 6.1 43 28 -11 12.2
12:30 1022 30.18 851 25.13 5.3 41.5 30 -10.9 12.4
12:35 1022 30.18 851 25.13 5.5 41.9 28 -11.7 10.9
12:40 1022 30.18 851 25.13 6.3 43.3 28 -10.9 12.3
12:45 1022 30.18 851 25.13 6.4 43.5 28 -10.8 12.5
12:50 1022 30.18 851 25.13 5.5 42 29 -11.2 11.8
12:55 1022 30.18 851 25.13 5.6 42.1 29 -11.2 11.8
13:00 1021 30.15 851 25.13 5.6 42.1 29 -11.2 11.9
13:05 1021 30.15 851 25.13 5.8 42.5 28 -11.6 11.2
13:10 1021 30.15 851 25.13 6.6 43.9 26 -11.4 11.5
13:15 1021 30.15 850 25.1 7.1 44.8 25 -11.8 10.8
13:20 1021 30.15 851 25.13 7.5 45.5 24 -11.8 10.8
13:25 1021 30.15 851 25.13 7 44.5 25 -12 10.4
13:30 1021 30.15 850 25.1 6.1 43 26 -11.9 10.7
13:35 1021 30.15 850 25.1 5.7 42.2 27 -11.8 10.8
13:40 1021 30.15 850 25.1 5.6 42.1 28 -11.6 11.2
13:45 1021 30.15 850 25.1 4.8 40.7 28 -12 10.3
13:50 1021 30.15 850 25.1 5.1 41.2 27 -12.5 9.6
13:55 1021 30.15 850 25.1 5.8 42.5 27 -11.7 10.9
14:00 1021 30.15 850 25.1 6.2 43.2 26 -11.7 10.9
14:05 1021 30.15 850 25.1 6.4 43.5 26 -11.9 10.6
14:10 1021 30.15 850 25.1 6.3 43.4 26 -11.6 11.1
14:15 1021 30.15 850 25.1 7.2 44.9 25 -11.7 10.9
14:20 1021 30.15 850 25.1 5.9 42.7 27 -11.5 11.2
14:25 1021 30.15 850 25.1 5.1 41.1 28 -11.8 10.7
14:30 1021 30.15 850 25.1 5.8 42.4 26 -12.4 9.8
14:35 1021 30.15 850 25.1 6.7 44.1 25 -11.7 10.9
14:40 1021 30.15 850 25.1 7 44.7 25 -11.6 11.1
14:45 1021 30.15 850 25.1 7.1 44.7 25 -11.7 10.9
14:50 1021 30.15 850 25.1 7.1 44.7 26 -11.3 11.7
14:55 1021 30.15 850 25.1 6.7 44.1 27 -11.1 12
15:00 1021 30.15 850 25.1 6.5 43.8 27 -11.3 11.7
15:05 1020 30.12 850 25.1 6.8 44.3 26 -11.3 11.6
15:10 1020 30.12 850 25.1 7 44.7 26 -11.3 11.7
15:15 1020 30.12 850 25.1 7.4 45.3 25 -11.5 11.3
15:20 1020 30.12 850 25.1 6.9 44.4 26 -11.3 11.6
15:25 1020 30.12 850 25.1 6.6 44 27 -11.2 11.8
15:30 1020 30.12 850 25.1 6.6 43.9 27 -11.3 11.6
15:35 1020 30.12 850 25.1 6.4 43.4 28 -11 12.2
15:40 1020 30.12 850 25.1 6.2 43.1 28 -11.1 12.1
15:45 1020 30.12 849 25.07 6.1 43 28 -11.1 12
15:50 1020 30.12 850 25.1 6.1 43 27 -11.5 11.3
15:55 1020 30.12 849 25.07 6.3 43.4 27 -11.3 11.6
16:00 1020 30.12 849 25.07 6.2 43.2 28 -11.2 11.8
16:05 1020 30.12 849 25.07 6.2 43.2 28 -11 12.2
16:10 1020 30.12 849 25.07 6.4 43.5 27 -11.2 11.8
16:15 1020 30.12 849 25.07 6.6 43.9 27 -11.3 11.7
16:20 1020 30.12 849 25.07 6.6 43.8 28 -10.9 12.3
16:25 1020 30.12 849 25.07 6.1 43 28 -10.9 12.4
16:30 1020 30.12 849 25.07 6 42.9 29 -10.9 12.4
16:35 1020 30.12 849 25.07 6 42.8 29 -10.8 12.6
16:40 1020 30.12 849 25.07 5.7 42.3 32 -9.6 14.8
16:45 1020 30.12 850 25.1 5.2 41.4 34 -9.6 14.8
16:50 1021 30.15 850 25.1 5.1 41.1 39 -7.9 17.7
16:55 1021 30.15 850 25.1 4.7 40.5 39 -8 17.6
17:00 1021 30.15 850 25.1 4.6 40.2 40 -7.8 18
17:05 1020 30.12 850 25.1 3.7 38.6 48 -6.3 20.7
17:10 1020 30.12 850 25.1 3.6 38.4 45 -7.3 18.8
17:15 1020 30.12 850 25.1 3.8 38.9 42 -7.8 17.9
17:20 1020 30.12 850 25.1 4.1 39.5 40 -8.4 16.9
17:25 1020 30.12 850 25.1 4.2 39.5 43 -7.4 18.7
17:30 1020 30.12 850 25.1 3.9 39.1 51 -5.4 22.3
17:35 1021 30.15 850 25.1 3.9 39.1 40 -8.6 16.5
17:40 1020 30.12 850 25.1 4.5 40.2 32 -10.6 12.8
17:45 1020 30.12 850 25.1 5 41 29 -11.5 11.3
17:50 1020 30.12 850 25.1 5 41 29 -11.7 11
17:55 1020 30.12 850 25.1 4.9 40.8 29 -11.7 11
18:00 1020 30.12 850 25.1 4.9 40.7 30 -11.5 11.3
18:05 1020 30.12 850 25.1 4.8 40.7 30 -11.4 11.6
18:10 1020 30.12 850 25.1 4.8 40.6 30 -11.6 11.2
18:15 1020 30.12 850 25.1 4.8 40.6 30 -11.3 11.7
18:20 1020 30.12 850 25.1 4.8 40.6 30 -11.4 11.5
18:25 1021 30.15 850 25.1 4.7 40.5 30 -11.4 11.5
18:30 1021 30.15 850 25.1 4.7 40.4 31 -11.1 11.9
18:35 1021 30.15 850 25.1 4.6 40.4 32 -10.8 12.6
18:40 1021 30.15 850 25.1 4.4 39.9 33 -10.6 13
18:45 1021 30.15 850 25.1 4.3 39.7 32 -10.8 12.5
18:50 1021 30.15 850 25.1 4.2 39.6 33 -10.7 12.7
18:55 1021 30.15 850 25.1 4.2 39.6 33 -10.6 12.9
19:00 1021 30.15 850 25.1 4.3 39.7 33 -10.6 13
19:05 1021 30.15 850 25.1 4.3 39.7 33 -10.6 13
19:10 1021 30.15 850 25.1 4.2 39.6 34 -10.4 13.3
19:15 1021 30.15 850 25.1 4 39.2 36 -9.9 14.2
19:20 1021 30.15 850 25.1 3.7 38.7 40 -8.6 16.5
19:25 1021 30.15 850 25.1 3.4 38.1 44 -7.8 18
19:30 1021 30.15 850 25.1 3 37.4 45 -7.9 17.8
19:35 1021 30.15 850 25.1 2.9 37.2 45 -7.8 18
19:40 1021 30.15 850 25.1 2.7 36.9 47 -7.5 18.5
19:45 1021 30.15 850 25.1 2.4 36.4 48 -7.4 18.7
19:50 1021 30.15 850 25.1 2.3 36.2 49 -7.3 18.9
19:55 1021 30.15 850 25.1 2 35.6 52 -7 19.5
20:00 1021 30.15 850 25.1 1.5 34.7 54 -6.8 19.8
20:05 1021 30.15 850 25.1 1.3 34.4 56 -6.5 20.2
20:10 1021 30.15 850 25.1 1.1 34 57 -6.6 20.2
20:15 1021 30.15 850 25.1 1.2 34.1 55 -6.8 19.8
20:20 1021 30.15 850 25.1 1.4 34.4 55 -6.6 20.1
20:25 1021 30.15 851 25.13 1.4 34.5 56 -6.5 20.3
20:30 1021 30.15 851 25.13 1.6 34.8 51 -7.5 18.5
20:35 1022 30.18 851 25.13 2 35.7 50 -7.4 18.6
20:40 1022 30.18 851 25.13 2.4 36.3 47 -7.8 18
20:45 1022 30.18 851 25.13 2.7 36.9 46 -7.7 18.1
20:50 1022 30.18 851 25.13 2.8 37.1 45 -7.8 17.9
20:55 1022 30.18 851 25.13 2.7 36.9 45 -8 17.6
21:00 1022 30.18 851 25.13 2.6 36.7 46 -7.8 18
21:05 1022 30.18 851 25.13 2.5 36.5 47 -7.6 18.3
21:10 1022 30.18 851 25.13 2.4 36.2 48 -7.6 18.3
21:15 1022 30.18 851 25.13 2.3 36.2 50 -7.1 19.2
21:20 1022 30.18 851 25.13 2.2 35.9 50 -7.1 19.1
21:25 1022 30.18 851 25.13 2.2 36 50 -7.2 19.1
21:30 1022 30.18 851 25.13 2.1 35.8 51 -7.1 19.3
21:35 1022 30.18 851 25.13 2 35.5 51 -7 19.4
21:40 1022 30.18 851 25.13 1.9 35.4 51 -7.1 19.2
21:45 1022 30.18 851 25.13 1.9 35.3 51 -7.3 18.8
21:50 1022 30.18 851 25.13 1.9 35.4 51 -7.3 18.9
21:55 1022 30.18 851 25.13 2 35.6 50 -7.4 18.7
22:00 1022 30.18 851 25.13 2.1 35.8 49 -7.4 18.7
22:05 1022 30.18 851 25.13 1.8 35.3 54 -6.6 20
22:10 1022 30.18 851 25.13 1.3 34.3 55 -6.9 19.6
22:15 1022 30.18 851 25.13 1.1 33.9 57 -6.6 20.1
22:20 1022 30.18 851 25.13 0.7 33.3 59 -6.3 20.6
22:25 1022 30.18 851 25.13 0.5 32.9 60 -6.4 20.6
22:30 1022 30.18 851 25.13 0.5 32.8 61 -6.3 20.6
22:35 1022 30.18 851 25.13 0.3 32.6 61 -6.3 20.6
22:40 1022 30.18 851 25.13 0.5 32.8 57 -7 19.4
22:45 1022 30.18 851 25.13 0.9 33.7 55 -7.1 19.2
22:50 1022 30.18 851 25.13 1.1 34 55 -7.1 19.3
22:55 1022 30.18 851 25.13 1.2 34.1 55 -7 19.5
23:00 1022 30.18 851 25.13 1.2 34.1 54 -7 19.3
23:05 1022 30.18 851 25.13 1.2 34.2 54 -7.2 19.1
23:10 1022 30.18 851 25.13 1.2 34.2 54 -7.1 19.2
23:15 1022 30.18 851 25.13 1.2 34.1 54 -7.1 19.2
23:20 1022 30.18 851 25.13 1.1 34 54 -7.2 19
23:25 1022 30.18 851 25.13 1.1 33.9 54 -7.1 19.1
23:30 1022 30.18 851 25.13 1.1 33.9 54 -7.2 19.1
23:35 1022 30.18 851 25.13 1.1 33.9 54 -7.2 19
23:40 1022 30.18 851 25.13 1.1 33.9 54 -7.3 18.8
23:45 1022 30.18 851 25.13 1.1 33.9 54 -7.2 19
23:50 1022 30.18 851 25.13 1 33.8 55 -7.1 19.2
23:55 1022 30.18 851 25.13 0.8 33.5 56 -7 19.4
24:00 1022 30.18 851 25.13 0.8 33.5 56 -7 19.3